sensor_id;sensor_type;location;lat;lon;timestamp;pressure;altitude;pressure_sealevel;temperature;humidity
21803;BME280;18591;47.080;22.214;2022-11-27T00:00:38;100877.72;;;6.05;61.23
21803;BME280;18591;47.080;22.214;2022-11-27T00:02:40;100877.72;;;6.01;61.44
21803;BME280;18591;47.080;22.214;2022-11-27T00:04:42;100875.97;;;6.04;61.51
21803;BME280;18591;47.080;22.214;2022-11-27T00:06:45;100877.75;;;6.12;61.44
21803;BME280;18591;47.080;22.214;2022-11-27T00:08:48;100874.16;;;6.11;61.09
21803;BME280;18591;47.080;22.214;2022-11-27T00:10:50;100878.63;;;6.04;61.35
21803;BME280;18591;47.080;22.214;2022-11-27T00:12:53;100866.16;;;6.05;61.38
21803;BME280;18591;47.080;22.214;2022-11-27T00:14:56;100875.94;;;6.00;61.85
21803;BME280;18591;47.080;22.214;2022-11-27T00:16:59;100882.19;;;6.05;61.72
21803;BME280;18591;47.080;22.214;2022-11-27T00:19:01;100872.41;;;6.04;61.46
21803;BME280;18591;47.080;22.214;2022-11-27T00:21:06;100877.72;;;6.05;61.78
21803;BME280;18591;47.080;22.214;2022-11-27T00:23:09;100874.19;;;6.05;61.90
21803;BME280;18591;47.080;22.214;2022-11-27T00:25:11;100882.19;;;6.05;62.13
21803;BME280;18591;47.080;22.214;2022-11-27T00:27:13;100870.63;;;6.01;61.79
21803;BME280;18591;47.080;22.214;2022-11-27T00:29:15;100869.72;;;6.01;62.35
21803;BME280;18591;47.080;22.214;2022-11-27T00:31:20;100877.72;;;5.99;62.16
21803;BME280;18591;47.080;22.214;2022-11-27T00:33:23;100867.94;;;5.95;62.15
21803;BME280;18591;47.080;22.214;2022-11-27T00:35:25;100878.63;;;5.97;62.71
21803;BME280;18591;47.080;22.214;2022-11-27T00:37:27;100869.72;;;5.96;63.29
21803;BME280;18591;47.080;22.214;2022-11-27T00:39:29;100882.19;;;5.99;62.92
21803;BME280;18591;47.080;22.214;2022-11-27T00:41:32;100883.94;;;6.03;63.05
21803;BME280;18591;47.080;22.214;2022-11-27T00:43:35;100887.53;;;6.06;62.68
21803;BME280;18591;47.080;22.214;2022-11-27T00:45:48;100878.63;;;6.15;62.92
21803;BME280;18591;47.080;22.214;2022-11-27T00:47:50;100874.19;;;6.13;62.84
21803;BME280;18591;47.080;22.214;2022-11-27T00:49:52;100865.28;;;6.12;63.03
21803;BME280;18591;47.080;22.214;2022-11-27T00:51:54;100872.41;;;6.16;62.97
21803;BME280;18591;47.080;22.214;2022-11-27T00:53:57;100871.53;;;6.22;62.49
21803;BME280;18591;47.080;22.214;2022-11-27T00:55:59;100862.66;;;6.24;62.92
21803;BME280;18591;47.080;22.214;2022-11-27T00:58:01;100863.50;;;6.26;62.71
21803;BME280;18591;47.080;22.214;2022-11-27T01:00:05;100867.09;;;6.25;62.59
21803;BME280;18591;47.080;22.214;2022-11-27T01:02:10;100867.97;;;6.26;63.03
21803;BME280;18591;47.080;22.214;2022-11-27T01:04:14;100875.06;;;6.24;62.92
21803;BME280;18591;47.080;22.214;2022-11-27T01:06:18;100867.09;;;6.25;63.29
21803;BME280;18591;47.080;22.214;2022-11-27T01:08:20;100869.78;;;6.35;62.88
21803;BME280;18591;47.080;22.214;2022-11-27T01:10:22;100872.44;;;6.38;63.34
21803;BME280;18591;47.080;22.214;2022-11-27T01:12:25;100874.19;;;6.39;62.85
21803;BME280;18591;47.080;22.214;2022-11-27T01:14:27;100874.19;;;6.42;63.13
21803;BME280;18591;47.080;22.214;2022-11-27T01:16:31;100877.78;;;6.38;63.70
21803;BME280;18591;47.080;22.214;2022-11-27T01:18:35;100871.53;;;6.40;63.59
21803;BME280;18591;47.080;22.214;2022-11-27T01:20:39;100874.22;;;6.37;63.71
21803;BME280;18591;47.080;22.214;2022-11-27T01:22:41;100864.41;;;6.44;63.45
21803;BME280;18591;47.080;22.214;2022-11-27T01:24:43;100868.84;;;6.46;63.28
21803;BME280;18591;47.080;22.214;2022-11-27T01:26:45;100867.09;;;6.44;63.76
21803;BME280;18591;47.080;22.214;2022-11-27T01:28:51;100859.97;;;6.46;63.62
21803;BME280;18591;47.080;22.214;2022-11-27T01:30:54;100867.09;;;6.44;63.73
21803;BME280;18591;47.080;22.214;2022-11-27T01:32:56;100868.00;;;6.47;64.08
21803;BME280;18591;47.080;22.214;2022-11-27T01:34:58;100872.44;;;6.50;64.03
21803;BME280;18591;47.080;22.214;2022-11-27T01:37:00;100870.63;;;6.52;64.03
21803;BME280;18591;47.080;22.214;2022-11-27T01:39:04;100870.66;;;6.50;63.77
21803;BME280;18591;47.080;22.214;2022-11-27T01:41:15;100867.97;;;6.53;63.64
21803;BME280;18591;47.080;22.214;2022-11-27T01:43:36;100869.78;;;6.50;63.83
21803;BME280;18591;47.080;22.214;2022-11-27T01:45:38;100866.19;;;6.54;63.85
21803;BME280;18591;47.080;22.214;2022-11-27T01:47:52;100864.41;;;6.53;64.35
21803;BME280;18591;47.080;22.214;2022-11-27T01:50:18;100865.28;;;6.57;64.15
21803;BME280;18591;47.080;22.214;2022-11-27T01:52:27;100866.19;;;6.65;63.85
21803;BME280;18591;47.080;22.214;2022-11-27T01:54:55;100868.84;;;6.54;64.67
21803;BME280;18591;47.080;22.214;2022-11-27T01:57:03;100868.00;;;6.55;63.85
21803;BME280;18591;47.080;22.214;2022-11-27T01:59:08;100862.63;;;6.58;64.12
21803;BME280;18591;47.080;22.214;2022-11-27T02:01:10;100871.53;;;6.59;63.82
21803;BME280;18591;47.080;22.214;2022-11-27T02:03:12;100870.63;;;6.60;63.82
21803;BME280;18591;47.080;22.214;2022-11-27T02:05:17;100862.59;;;6.63;63.68
21803;BME280;18591;47.080;22.214;2022-11-27T02:07:23;100866.19;;;6.62;63.99
21803;BME280;18591;47.080;22.214;2022-11-27T02:09:27;100867.06;;;6.62;63.91
21803;BME280;18591;47.080;22.214;2022-11-27T02:13:48;100865.31;;;6.58;63.62
21803;BME280;18591;47.080;22.214;2022-11-27T02:30:13;100859.06;;;6.68;63.19
21803;BME280;18591;47.080;22.214;2022-11-27T02:32:39;100855.50;;;6.63;63.70
21803;BME280;18591;47.080;22.214;2022-11-27T02:34:57;100856.38;;;6.62;63.88
21803;BME280;18591;47.080;22.214;2022-11-27T02:39:19;100860.84;;;6.66;63.46
21803;BME280;18591;47.080;22.214;2022-11-27T02:41:27;100868.84;;;6.66;64.08
21803;BME280;18591;47.080;22.214;2022-11-27T02:43:41;100869.75;;;6.61;64.36
21803;BME280;18591;47.080;22.214;2022-11-27T02:45:48;100875.06;;;6.70;63.94
21803;BME280;18591;47.080;22.214;2022-11-27T02:47:53;100875.97;;;6.76;63.98
21803;BME280;18591;47.080;22.214;2022-11-27T02:49:58;100875.06;;;6.79;63.66
21803;BME280;18591;47.080;22.214;2022-11-27T02:52:02;100881.28;;;6.75;64.09
21803;BME280;18591;47.080;22.214;2022-11-27T02:54:07;100881.31;;;6.69;64.03
21803;BME280;18591;47.080;22.214;2022-11-27T02:56:16;100883.06;;;6.73;64.20
21803;BME280;18591;47.080;22.214;2022-11-27T02:58:22;100886.66;;;6.80;63.63
21803;BME280;18591;47.080;22.214;2022-11-27T03:00:26;100887.53;;;6.82;63.66
21803;BME280;18591;47.080;22.214;2022-11-27T03:02:38;100886.66;;;6.75;63.37
21803;BME280;18591;47.080;22.214;2022-11-27T03:04:46;100879.50;;;6.75;63.94
21803;BME280;18591;47.080;22.214;2022-11-27T03:06:55;100872.41;;;6.70;64.06
21803;BME280;18591;47.080;22.214;2022-11-27T03:09:00;100875.97;;;6.75;64.05
21803;BME280;18591;47.080;22.214;2022-11-27T03:11:07;100874.19;;;6.71;64.06
21803;BME280;18591;47.080;22.214;2022-11-27T03:13:10;100875.97;;;6.73;64.05
21803;BME280;18591;47.080;22.214;2022-11-27T03:15:12;100870.63;;;6.80;63.75
21803;BME280;18591;47.080;22.214;2022-11-27T03:17:54;100879.50;;;6.75;63.89
21803;BME280;18591;47.080;22.214;2022-11-27T03:20:12;100877.72;;;6.81;63.89
21803;BME280;18591;47.080;22.214;2022-11-27T03:22:17;100882.19;;;6.77;63.91
21803;BME280;18591;47.080;22.214;2022-11-27T03:24:20;100879.53;;;6.82;63.92
21803;BME280;18591;47.080;22.214;2022-11-27T03:26:22;100880.41;;;6.84;63.98
21803;BME280;18591;47.080;22.214;2022-11-27T03:28:25;100891.09;;;6.81;63.84
21803;BME280;18591;47.080;22.214;2022-11-27T03:30:29;100879.50;;;6.83;63.63
21803;BME280;18591;47.080;22.214;2022-11-27T03:32:32;100875.97;;;6.81;64.05
21803;BME280;18591;47.080;22.214;2022-11-27T03:34:35;100879.53;;;6.82;63.91
21803;BME280;18591;47.080;22.214;2022-11-27T03:36:38;100871.50;;;6.82;63.81
21803;BME280;18591;47.080;22.214;2022-11-27T03:38:41;100880.41;;;6.81;63.95
21803;BME280;18591;47.080;22.214;2022-11-27T03:40:52;100874.16;;;6.83;63.91
21803;BME280;18591;47.080;22.214;2022-11-27T03:43:08;100869.72;;;6.87;63.81
21803;BME280;18591;47.080;22.214;2022-11-27T03:56:46;100875.06;;;6.79;64.03
21803;BME280;18591;47.080;22.214;2022-11-27T03:59:19;100875.06;;;6.79;64.18
21803;BME280;18591;47.080;22.214;2022-11-27T04:01:25;100862.59;;;6.83;63.82
21803;BME280;18591;47.080;22.214;2022-11-27T04:03:30;100865.28;;;6.81;64.24
21803;BME280;18591;47.080;22.214;2022-11-27T04:05:32;100870.63;;;6.81;64.31
21803;BME280;18591;47.080;22.214;2022-11-27T04:07:35;100870.63;;;6.80;64.07
21803;BME280;18591;47.080;22.214;2022-11-27T04:09:37;100866.16;;;6.83;63.97
21803;BME280;18591;47.080;22.214;2022-11-27T04:11:39;100867.94;;;6.84;64.34
21803;BME280;18591;47.080;22.214;2022-11-27T04:13:41;100859.91;;;6.86;64.31
21803;BME280;18591;47.080;22.214;2022-11-27T04:15:46;100859.03;;;6.91;64.10
21803;BME280;18591;47.080;22.214;2022-11-27T04:17:49;100856.38;;;6.87;64.05
21803;BME280;18591;47.080;22.214;2022-11-27T04:19:51;100852.81;;;6.79;64.45
21803;BME280;18591;47.080;22.214;2022-11-27T04:21:53;100851.91;;;6.83;64.04
21803;BME280;18591;47.080;22.214;2022-11-27T04:23:56;100845.69;;;6.87;64.20
21803;BME280;18591;47.080;22.214;2022-11-27T04:25:58;100851.91;;;6.86;64.23
21803;BME280;18591;47.080;22.214;2022-11-27T04:27:59;100849.25;;;6.84;64.08
21803;BME280;18591;47.080;22.214;2022-11-27T04:30:02;100851.91;;;6.86;64.29
21803;BME280;18591;47.080;22.214;2022-11-27T04:32:05;100851.00;;;6.90;64.44
21803;BME280;18591;47.080;22.214;2022-11-27T04:34:07;100851.91;;;6.92;64.06
21803;BME280;18591;47.080;22.214;2022-11-27T04:36:09;100845.66;;;6.93;64.34
21803;BME280;18591;47.080;22.214;2022-11-27T04:38:12;100844.78;;;6.86;64.28
21803;BME280;18591;47.080;22.214;2022-11-27T04:40:14;100850.13;;;6.86;64.04
21803;BME280;18591;47.080;22.214;2022-11-27T04:42:17;100850.09;;;6.92;64.29
21803;BME280;18591;47.080;22.214;2022-11-27T04:44:19;100846.53;;;6.93;64.06
21803;BME280;18591;47.080;22.214;2022-11-27T04:46:25;100844.78;;;6.86;64.27
21803;BME280;18591;47.080;22.214;2022-11-27T04:48:27;100849.22;;;6.86;64.29
21803;BME280;18591;47.080;22.214;2022-11-27T04:50:29;100847.44;;;6.85;64.90
21803;BME280;18591;47.080;22.214;2022-11-27T04:52:31;100850.09;;;6.92;64.28
21803;BME280;18591;47.080;22.214;2022-11-27T04:54:34;100859.88;;;6.93;64.42
21803;BME280;18591;47.080;22.214;2022-11-27T04:56:38;100856.34;;;6.99;64.32
21803;BME280;18591;47.080;22.214;2022-11-27T04:58:41;100862.59;;;6.96;64.17
21803;BME280;18591;47.080;22.214;2022-11-27T05:00:43;100859.88;;;7.01;63.90
21803;BME280;18591;47.080;22.214;2022-11-27T05:02:45;100850.09;;;6.98;63.96
21803;BME280;18591;47.080;22.214;2022-11-27T05:04:50;100855.44;;;6.97;64.43
21803;BME280;18591;47.080;22.214;2022-11-27T05:06:52;100863.47;;;6.92;64.14
21803;BME280;18591;47.080;22.214;2022-11-27T05:08:54;100863.44;;;6.95;64.45
21803;BME280;18591;47.080;22.214;2022-11-27T05:11:09;100865.28;;;6.81;65.00
21803;BME280;18591;47.080;22.214;2022-11-27T05:13:12;100859.03;;;6.81;65.12
21803;BME280;18591;47.080;22.214;2022-11-27T05:15:14;100856.38;;;6.87;64.57
21803;BME280;18591;47.080;22.214;2022-11-27T05:17:16;100846.53;;;6.90;64.74
21803;BME280;18591;47.080;22.214;2022-11-27T05:19:20;100856.34;;;6.91;64.76
21803;BME280;18591;47.080;22.214;2022-11-27T05:21:23;100854.56;;;6.90;64.54
21803;BME280;18591;47.080;22.214;2022-11-27T05:23:25;100851.00;;;6.93;64.58
21803;BME280;18591;47.080;22.214;2022-11-27T05:25:27;100857.22;;;6.98;64.44
21803;BME280;18591;47.080;22.214;2022-11-27T05:27:30;100852.78;;;6.92;64.96
21803;BME280;18591;47.080;22.214;2022-11-27T05:29:32;100856.34;;;6.94;64.74
21803;BME280;18591;47.080;22.214;2022-11-27T05:31:34;100857.22;;;7.04;64.69
21803;BME280;18591;47.080;22.214;2022-11-27T05:33:39;100857.22;;;6.98;64.72
21803;BME280;18591;47.080;22.214;2022-11-27T05:35:42;100859.91;;;6.95;65.09
21803;BME280;18591;47.080;22.214;2022-11-27T05:37:43;100859.00;;;6.96;65.05
21803;BME280;18591;47.080;22.214;2022-11-27T05:39:46;100855.44;;;7.05;64.63
21803;BME280;18591;47.080;22.214;2022-11-27T05:41:48;100864.31;;;7.04;64.96
21803;BME280;18591;47.080;22.214;2022-11-27T05:43:50;100863.44;;;7.08;64.90
21803;BME280;18591;47.080;22.214;2022-11-27T05:45:52;100867.00;;;7.10;65.04
21803;BME280;18591;47.080;22.214;2022-11-27T05:47:54;100869.66;;;7.11;64.61
21803;BME280;18591;47.080;22.214;2022-11-27T05:49:56;100866.97;;;7.17;64.29
21803;BME280;18591;47.080;22.214;2022-11-27T05:51:59;100875.88;;;7.15;64.41
21803;BME280;18591;47.080;22.214;2022-11-27T05:54:01;100871.44;;;7.12;64.50
21803;BME280;18591;47.080;22.214;2022-11-27T05:56:06;100871.44;;;7.08;65.04
21803;BME280;18591;47.080;22.214;2022-11-27T05:58:08;100867.91;;;7.07;64.85
21803;BME280;18591;47.080;22.214;2022-11-27T06:00:11;100869.66;;;7.11;64.78
21803;BME280;18591;47.080;22.214;2022-11-27T06:02:13;100878.59;;;7.12;64.86
21803;BME280;18591;47.080;22.214;2022-11-27T06:04:24;100866.09;;;7.12;65.02
21803;BME280;18591;47.080;22.214;2022-11-27T06:06:26;100878.53;;;7.16;64.63
21803;BME280;18591;47.080;22.214;2022-11-27T06:08:29;100873.22;;;7.13;64.92
21803;BME280;18591;47.080;22.214;2022-11-27T06:10:31;100874.09;;;7.11;65.13
21803;BME280;18591;47.080;22.214;2022-11-27T06:12:34;100879.47;;;7.12;64.92
21803;BME280;18591;47.080;22.214;2022-11-27T06:14:36;100873.22;;;7.15;65.09
21803;BME280;18591;47.080;22.214;2022-11-27T06:16:38;100870.53;;;7.16;65.16
21803;BME280;18591;47.080;22.214;2022-11-27T06:18:41;100868.75;;;7.20;65.00
21803;BME280;18591;47.080;22.214;2022-11-27T06:20:44;100877.66;;;7.25;64.49
21803;BME280;18591;47.080;22.214;2022-11-27T06:22:55;100875.88;;;7.27;64.58
21803;BME280;18591;47.080;22.214;2022-11-27T06:24:57;100888.34;;;7.20;64.84
21803;BME280;18591;47.080;22.214;2022-11-27T06:27:00;100875.88;;;7.23;64.93
21803;BME280;18591;47.080;22.214;2022-11-27T06:29:02;100874.06;;;7.26;64.95
21803;BME280;18591;47.080;22.214;2022-11-27T06:31:06;100875.84;;;7.26;64.60
21803;BME280;18591;47.080;22.214;2022-11-27T06:33:08;100877.63;;;7.28;64.43
21803;BME280;18591;47.080;22.214;2022-11-27T06:35:13;100880.31;;;7.24;65.03
21803;BME280;18591;47.080;22.214;2022-11-27T06:37:15;100879.44;;;7.23;64.80
21803;BME280;18591;47.080;22.214;2022-11-27T06:39:18;100882.97;;;7.27;64.80
21803;BME280;18591;47.080;22.214;2022-11-27T06:41:22;100885.66;;;7.28;64.76
21803;BME280;18591;47.080;22.214;2022-11-27T06:43:28;100879.41;;;7.26;64.98
21803;BME280;18591;47.080;22.214;2022-11-27T06:45:31;100877.59;;;7.31;64.99
21803;BME280;18591;47.080;22.214;2022-11-27T06:47:33;100871.34;;;7.37;64.52
21803;BME280;18591;47.080;22.214;2022-11-27T06:49:36;100879.38;;;7.43;64.21
21803;BME280;18591;47.080;22.214;2022-11-27T06:51:38;100882.03;;;7.38;64.51
21803;BME280;18591;47.080;22.214;2022-11-27T06:53:41;100871.38;;;7.34;64.94
21803;BME280;18591;47.080;22.214;2022-11-27T06:55:43;100874.00;;;7.37;64.96
21803;BME280;18591;47.080;22.214;2022-11-27T06:57:46;100872.28;;;7.33;64.60
21803;BME280;18591;47.080;22.214;2022-11-27T06:59:50;100868.69;;;7.35;65.01
21803;BME280;18591;47.080;22.214;2022-11-27T07:01:52;100866.00;;;7.37;65.08
21803;BME280;18591;47.080;22.214;2022-11-27T07:03:55;100859.75;;;7.39;65.41
21803;BME280;18591;47.080;22.214;2022-11-27T07:06:02;100867.78;;;7.38;65.41
21803;BME280;18591;47.080;22.214;2022-11-27T07:08:04;100868.63;;;7.49;65.11
21803;BME280;18591;47.080;22.214;2022-11-27T07:10:07;100871.31;;;7.51;64.86
21803;BME280;18591;47.080;22.214;2022-11-27T07:12:09;100861.47;;;7.56;64.93
21803;BME280;18591;47.080;22.214;2022-11-27T07:14:12;100867.72;;;7.56;64.58
21803;BME280;18591;47.080;22.214;2022-11-27T07:16:15;100870.38;;;7.61;64.57
21803;BME280;18591;47.080;22.214;2022-11-27T07:18:17;100872.19;;;7.56;64.72
21803;BME280;18591;47.080;22.214;2022-11-27T07:20:19;100872.19;;;7.51;65.06
21803;BME280;18591;47.080;22.214;2022-11-27T07:22:21;100873.03;;;7.59;64.65
21803;BME280;18591;47.080;22.214;2022-11-27T07:24:23;100865.03;;;7.56;64.91
21803;BME280;18591;47.080;22.214;2022-11-27T07:26:29;100869.47;;;7.63;64.75
21803;BME280;18591;47.080;22.214;2022-11-27T07:28:31;100871.25;;;7.63;65.54
21803;BME280;18591;47.080;22.214;2022-11-27T07:30:33;100859.63;;;7.69;64.80
21803;BME280;18591;47.080;22.214;2022-11-27T07:32:35;100867.66;;;7.73;64.82
21803;BME280;18591;47.080;22.214;2022-11-27T07:34:37;100865.81;;;7.78;64.74
21803;BME280;18591;47.080;22.214;2022-11-27T07:36:39;100865.81;;;7.81;64.49
21803;BME280;18591;47.080;22.214;2022-11-27T07:38:42;100864.00;;;7.82;64.41
21803;BME280;18591;47.080;22.214;2022-11-27T07:40:44;100872.91;;;7.85;64.25
21803;BME280;18591;47.080;22.214;2022-11-27T07:42:46;100867.53;;;7.89;64.01
21803;BME280;18591;47.080;22.214;2022-11-27T07:44:51;100872.88;;;7.89;64.08
21803;BME280;18591;47.080;22.214;2022-11-27T07:46:53;100873.88;;;7.74;64.38
21803;BME280;18591;47.080;22.214;2022-11-27T07:48:55;100872.09;;;7.74;64.83
21803;BME280;18591;47.080;22.214;2022-11-27T07:51:00;100872.97;;;7.72;64.86
21803;BME280;18591;47.080;22.214;2022-11-27T07:53:02;100870.28;;;7.79;65.21
21803;BME280;18591;47.080;22.214;2022-11-27T07:55:04;100867.53;;;7.92;64.87
21803;BME280;18591;47.080;22.214;2022-11-27T07:57:06;100870.19;;;7.95;64.72
21803;BME280;18591;47.080;22.214;2022-11-27T07:59:11;100859.56;;;7.81;65.07
21803;BME280;18591;47.080;22.214;2022-11-27T08:01:16;100864.84;;;7.92;64.29
21803;BME280;18591;47.080;22.214;2022-11-27T08:03:18;100868.38;;;7.97;64.43
21803;BME280;18591;47.080;22.214;2022-11-27T08:05:20;100870.16;;;7.98;64.17
21803;BME280;18591;47.080;22.214;2022-11-27T08:07:27;100866.53;;;8.05;63.93
21803;BME280;18591;47.080;22.214;2022-11-27T08:09:30;100862.06;;;8.10;63.82
21803;BME280;18591;47.080;22.214;2022-11-27T08:11:32;100862.94;;;8.12;63.44
21803;BME280;18591;47.080;22.214;2022-11-27T08:13:35;100864.75;;;8.04;63.47
21803;BME280;18591;47.080;22.214;2022-11-27T08:15:38;100876.31;;;8.11;63.96
21803;BME280;18591;47.080;22.214;2022-11-27T08:17:43;100867.38;;;8.12;64.22
21803;BME280;18591;47.080;22.214;2022-11-27T08:19:45;100870.06;;;8.15;64.19
21803;BME280;18591;47.080;22.214;2022-11-27T08:21:47;100870.03;;;8.16;64.23
21803;BME280;18591;47.080;22.214;2022-11-27T08:23:49;100866.50;;;8.13;64.36
21803;BME280;18591;47.080;22.214;2022-11-27T08:25:51;100862.03;;;8.12;64.80
21803;BME280;18591;47.080;22.214;2022-11-27T08:27:53;100865.63;;;8.06;65.13
21803;BME280;18591;47.080;22.214;2022-11-27T08:29:55;100867.44;;;8.05;65.28
21803;BME280;18591;47.080;22.214;2022-11-27T08:31:57;100869.22;;;8.05;65.64
21803;BME280;18591;47.080;22.214;2022-11-27T08:33:59;100868.31;;;8.07;65.43
21803;BME280;18591;47.080;22.214;2022-11-27T08:36:01;100866.47;;;8.16;65.26
21803;BME280;18591;47.080;22.214;2022-11-27T08:38:04;100869.09;;;8.22;65.16
21803;BME280;18591;47.080;22.214;2022-11-27T08:40:06;100873.63;;;8.09;65.78
21803;BME280;18591;47.080;22.214;2022-11-27T08:42:08;100869.13;;;8.19;65.22
21803;BME280;18591;47.080;22.214;2022-11-27T08:44:10;100872.59;;;8.33;64.74
21803;BME280;18591;47.080;22.214;2022-11-27T08:46:13;100871.66;;;8.39;64.32
21803;BME280;18591;47.080;22.214;2022-11-27T08:48:15;100876.13;;;8.40;63.76
21803;BME280;18591;47.080;22.214;2022-11-27T08:50:17;100875.25;;;8.35;63.85
21803;BME280;18591;47.080;22.214;2022-11-27T08:52:19;100877.13;;;8.23;64.52
21803;BME280;18591;47.080;22.214;2022-11-27T08:54:24;100877.06;;;8.31;64.13
21803;BME280;18591;47.080;22.214;2022-11-27T08:56:26;100870.78;;;8.32;64.04
21803;BME280;18591;47.080;22.214;2022-11-27T08:58:28;100875.28;;;8.33;64.17
21803;BME280;18591;47.080;22.214;2022-11-27T09:00:35;100870.78;;;8.41;63.98
21803;BME280;18591;47.080;22.214;2022-11-27T09:02:38;100871.66;;;8.43;63.76
21803;BME280;18591;47.080;22.214;2022-11-27T09:04:40;100857.38;;;8.43;63.75
21803;BME280;18591;47.080;22.214;2022-11-27T09:06:42;100869.88;;;8.41;64.23
21803;BME280;18591;47.080;22.214;2022-11-27T09:08:44;100865.41;;;8.41;64.05
21803;BME280;18591;47.080;22.214;2022-11-27T09:10:46;100858.16;;;8.54;63.93
21803;BME280;18591;47.080;22.214;2022-11-27T09:12:49;100868.81;;;8.60;63.93
21803;BME280;18591;47.080;22.214;2022-11-27T09:14:51;100857.19;;;8.63;63.76
21803;BME280;18591;47.080;22.214;2022-11-27T09:16:53;100854.50;;;8.63;63.86
21803;BME280;18591;47.080;22.214;2022-11-27T09:18:56;100857.97;;;8.76;63.70
21803;BME280;18591;47.080;22.214;2022-11-27T09:21:05;100849.06;;;8.74;63.59
21803;BME280;18591;47.080;22.214;2022-11-27T09:23:08;100854.34;;;8.80;63.15
21803;BME280;18591;47.080;22.214;2022-11-27T09:25:15;100857.88;;;8.86;63.02
21803;BME280;18591;47.080;22.214;2022-11-27T09:27:17;100856.91;;;8.90;62.65
21803;BME280;18591;47.080;22.214;2022-11-27T09:29:20;100862.25;;;8.97;62.48
21803;BME280;18591;47.080;22.214;2022-11-27T09:31:22;100868.41;;;9.03;62.84
21803;BME280;18591;47.080;22.214;2022-11-27T09:33:26;100868.38;;;9.06;62.86
21803;BME280;18591;47.080;22.214;2022-11-27T09:35:29;100863.97;;;9.01;62.72
21803;BME280;18591;47.080;22.214;2022-11-27T09:37:31;100859.41;;;9.09;62.62
21803;BME280;18591;47.080;22.214;2022-11-27T09:39:34;100854.06;;;9.06;62.17
21803;BME280;18591;47.080;22.214;2022-11-27T09:41:48;100848.59;;;9.18;63.13
21803;BME280;18591;47.080;22.214;2022-11-27T09:43:55;100847.56;;;9.28;63.13
21803;BME280;18591;47.080;22.214;2022-11-27T09:46:03;100852.94;;;9.28;63.27
21803;BME280;18591;47.080;22.214;2022-11-27T09:48:14;100845.81;;;9.24;62.97
21803;BME280;18591;47.080;22.214;2022-11-27T09:50:26;100835.94;;;9.29;63.20
21803;BME280;18591;47.080;22.214;2022-11-27T09:52:39;100833.19;;;9.32;62.97
21803;BME280;18591;47.080;22.214;2022-11-27T09:54:51;100836.66;;;9.42;62.82
21803;BME280;18591;47.080;22.214;2022-11-27T09:56:56;100829.47;;;9.46;62.89
21803;BME280;18591;47.080;22.214;2022-11-27T09:59:02;100841.03;;;9.49;62.35
21803;BME280;18591;47.080;22.214;2022-11-27T10:03:14;100840.03;;;9.58;61.66
21803;BME280;18591;47.080;22.214;2022-11-27T10:05:22;100833.72;;;9.60;62.07
21803;BME280;18591;47.080;22.214;2022-11-27T10:07:51;100826.53;;;9.64;61.93
21803;BME280;18591;47.080;22.214;2022-11-27T10:10:05;100823.81;;;9.66;61.38
21803;BME280;18591;47.080;22.214;2022-11-27T10:14:43;100821.03;;;9.75;60.58
21803;BME280;18591;47.080;22.214;2022-11-27T10:16:56;100817.34;;;9.80;60.12
21803;BME280;18591;47.080;22.214;2022-11-27T10:21:35;100812.84;;;9.84;59.86
21803;BME280;18591;47.080;22.214;2022-11-27T10:25:49;100813.66;;;9.89;59.39
21803;BME280;18591;47.080;22.214;2022-11-27T10:30:37;100804.63;;;9.95;58.64
21803;BME280;18591;47.080;22.214;2022-11-27T10:32:40;100809.06;;;9.97;59.66
21803;BME280;18591;47.080;22.214;2022-11-27T10:35:08;100807.25;;;9.98;59.85
21803;BME280;18591;47.080;22.214;2022-11-27T10:39:30;100807.19;;;10.02;58.80
21803;BME280;18591;47.080;22.214;2022-11-27T10:41:38;100799.94;;;10.08;58.78
21803;BME280;18591;47.080;22.214;2022-11-27T10:43:53;100799.03;;;10.09;58.40
21803;BME280;18591;47.080;22.214;2022-11-27T10:46:14;100795.38;;;10.13;57.59
21803;BME280;18591;47.080;22.214;2022-11-27T10:48:22;100793.47;;;10.19;57.92
21803;BME280;18591;47.080;22.214;2022-11-27T10:50:25;100790.78;;;10.19;57.17
21803;BME280;18591;47.080;22.214;2022-11-27T10:52:27;100788.97;;;10.21;57.39
21803;BME280;18591;47.080;22.214;2022-11-27T10:54:32;100789.84;;;10.23;57.01
21803;BME280;18591;47.080;22.214;2022-11-27T10:59:31;100783.50;;;10.31;57.44
21803;BME280;18591;47.080;22.214;2022-11-27T11:01:47;100782.53;;;10.33;57.88
21803;BME280;18591;47.080;22.214;2022-11-27T11:04:03;100784.31;;;10.34;58.04
21803;BME280;18591;47.080;22.214;2022-11-27T11:06:25;100784.25;;;10.37;58.84
21803;BME280;18591;47.080;22.214;2022-11-27T11:08:28;100786.84;;;10.43;59.11
21803;BME280;18591;47.080;22.214;2022-11-27T11:10:42;100780.59;;;10.43;59.14
21803;BME280;18591;47.080;22.214;2022-11-27T11:12:45;100784.03;;;10.51;59.01
21803;BME280;18591;47.080;22.214;2022-11-27T11:14:56;100784.03;;;10.50;59.24
21803;BME280;18591;47.080;22.214;2022-11-27T11:16:59;100783.97;;;10.54;59.82
21803;BME280;18591;47.080;22.214;2022-11-27T11:19:02;100781.22;;;10.57;59.90
21803;BME280;18591;47.080;22.214;2022-11-27T11:21:04;100774.97;;;10.57;59.95
21803;BME280;18591;47.080;22.214;2022-11-27T11:23:22;100778.53;;;10.56;60.09
21803;BME280;18591;47.080;22.214;2022-11-27T11:25:28;100772.13;;;10.64;60.17
21803;BME280;18591;47.080;22.214;2022-11-27T11:27:30;100777.44;;;10.67;60.35
21803;BME280;18591;47.080;22.214;2022-11-27T11:29:44;100766.66;;;10.69;60.70
21803;BME280;18591;47.080;22.214;2022-11-27T11:31:47;100772.88;;;10.73;60.71
21803;BME280;18591;47.080;22.214;2022-11-27T11:34:25;100770.19;;;10.71;60.66
21803;BME280;18591;47.080;22.214;2022-11-27T11:36:25;100769.28;;;10.72;60.26
21803;BME280;18591;47.080;22.214;2022-11-27T11:38:30;100770.25;;;10.70;60.71
21803;BME280;18591;47.080;22.214;2022-11-27T11:40:34;100765.69;;;10.73;60.51